createdAt,value
2024-02-02T00:01:00.265Z,68.93
2024-02-02T00:03:27.843Z,69.24
2024-02-02T00:05:55.680Z,68.76
2024-02-02T00:08:24.552Z,69.15
2024-02-02T00:10:52.197Z,69.00
2024-02-02T00:13:19.860Z,68.99
2024-02-02T00:15:48.750Z,68.88
2024-02-02T00:18:16.480Z,69.07
2024-02-02T00:20:44.593Z,69.13
2024-02-02T00:23:13.475Z,69.28
2024-02-02T00:25:41.041Z,68.97
2024-02-02T00:28:08.593Z,69.15
2024-02-02T00:30:37.572Z,69.40
2024-02-02T00:33:05.576Z,69.58
2024-02-02T00:35:33.430Z,69.71
2024-02-02T00:38:02.216Z,70.03
2024-02-02T00:40:30.420Z,69.87
2024-02-02T00:42:58.050Z,70.11
2024-02-02T00:45:26.866Z,70.51
2024-02-02T00:47:54.882Z,70.52
2024-02-02T00:50:22.681Z,70.68
2024-02-02T00:52:51.505Z,70.76
2024-02-02T00:55:19.130Z,70.95
2024-02-02T00:57:46.743Z,71.15
2024-02-02T01:00:16.110Z,71.02
2024-02-02T01:02:43.741Z,71.36
2024-02-02T01:05:11.395Z,71.49
2024-02-02T01:07:40.284Z,71.84
2024-02-02T01:10:07.939Z,72.09
2024-02-02T01:12:35.628Z,72.05
2024-02-02T01:15:04.677Z,72.18
2024-02-02T01:17:32.356Z,72.47
2024-02-02T01:20:00.089Z,72.39
2024-02-02T01:22:29.097Z,72.32
2024-02-02T01:24:56.669Z,72.49
2024-02-02T01:27:24.374Z,72.37
2024-02-02T01:29:53.264Z,72.74
2024-02-02T01:32:21.026Z,72.70
2024-02-02T01:34:48.850Z,72.69
2024-02-02T01:37:17.837Z,72.77
2024-02-02T01:39:45.389Z,72.89
2024-02-02T01:42:12.985Z,72.76
2024-02-02T01:44:41.947Z,72.79
2024-02-02T01:47:09.649Z,72.70
2024-02-02T01:49:37.601Z,72.83
2024-02-02T01:52:06.557Z,72.69
2024-02-02T01:54:34.241Z,72.70
2024-02-02T01:57:01.881Z,72.63
2024-02-02T01:59:30.775Z,72.99
2024-02-02T02:01:58.733Z,72.99
2024-02-02T02:04:26.459Z,73.02
2024-02-02T02:06:55.593Z,73.33
2024-02-02T02:09:23.386Z,73.30
2024-02-02T02:11:51.077Z,73.51
2024-02-02T02:14:19.969Z,73.71
2024-02-02T02:16:47.875Z,73.96
2024-02-02T02:19:15.755Z,74.28
2024-02-02T02:21:44.745Z,74.17
2024-02-02T02:24:13.170Z,74.47
2024-02-02T02:26:40.877Z,74.48
2024-02-02T02:29:09.788Z,74.78
2024-02-02T02:31:37.144Z,75.02
2024-02-02T02:34:05.030Z,74.88
2024-02-02T02:36:34.045Z,75.05
2024-02-02T02:39:01.881Z,75.20
2024-02-02T02:41:29.518Z,75.21
2024-02-02T02:43:58.299Z,75.53
2024-02-02T02:46:25.960Z,75.21
2024-02-02T02:48:54.078Z,75.37
2024-02-02T02:51:23.217Z,75.37
2024-02-02T02:53:50.921Z,75.53
2024-02-02T02:56:18.453Z,75.66
2024-02-02T02:58:47.245Z,75.62
2024-02-02T03:01:14.853Z,75.64
2024-02-02T03:03:42.620Z,75.40
2024-02-02T03:06:11.620Z,75.41
2024-02-02T03:08:39.323Z,75.40
2024-02-02T03:11:06.992Z,75.33
2024-02-02T03:13:35.768Z,75.35
2024-02-02T03:16:03.331Z,75.60
2024-02-02T03:18:31.339Z,76.09
2024-02-02T03:21:00.486Z,76.48
2024-02-02T03:23:28.153Z,76.42
2024-02-02T03:25:55.716Z,76.52
2024-02-02T03:28:24.518Z,76.45
2024-02-02T03:30:52.166Z,76.42
2024-02-02T03:33:20.261Z,76.18
2024-02-02T03:35:49.372Z,76.08
2024-02-02T03:38:17.005Z,75.95
2024-02-02T03:40:44.518Z,75.72
2024-02-02T03:43:13.344Z,75.19
2024-02-02T03:45:41.040Z,75.12
2024-02-02T03:48:08.669Z,74.96
2024-02-02T03:50:37.640Z,74.63
2024-02-02T03:53:05.527Z,74.09
2024-02-02T03:55:33.171Z,74.02
2024-02-02T03:58:02.082Z,73.63
2024-02-02T04:00:30.229Z,73.57
2024-02-02T04:02:57.929Z,73.57
2024-02-02T04:05:27.047Z,73.53
2024-02-02T04:07:54.762Z,73.34
2024-02-02T04:10:22.328Z,72.97
2024-02-02T04:12:51.228Z,72.79
2024-02-02T04:15:19.100Z,72.91
2024-02-02T04:17:46.769Z,72.77
2024-02-02T04:20:15.657Z,72.78
2024-02-02T04:22:43.290Z,72.77
2024-02-02T04:25:10.852Z,72.51
2024-02-02T04:27:39.744Z,72.71
2024-02-02T04:30:07.329Z,72.66
2024-02-02T04:32:35.203Z,72.88
2024-02-02T04:35:04.271Z,72.72
2024-02-02T04:37:32.221Z,72.49
2024-02-02T04:39:59.780Z,72.62
2024-02-02T04:42:28.749Z,72.73
2024-02-02T04:44:56.546Z,72.69
2024-02-02T04:47:24.295Z,72.97
2024-02-02T04:49:53.269Z,72.88
2024-02-02T04:52:20.955Z,72.65
2024-02-02T04:54:48.609Z,72.91
2024-02-02T04:57:17.749Z,72.74
2024-02-02T04:59:45.469Z,72.74
2024-02-02T05:02:13.143Z,72.94
2024-02-02T05:04:42.261Z,72.88
2024-02-02T05:07:09.986Z,72.73
2024-02-02T05:09:37.696Z,72.66
2024-02-02T05:12:06.803Z,72.70
2024-02-02T05:14:34.421Z,72.79
2024-02-02T05:17:02.075Z,72.81
2024-02-02T05:19:31.286Z,73.03
2024-02-02T05:21:58.829Z,73.00
2024-02-02T05:24:38.486Z,73.01
2024-02-02T05:27:14.346Z,73.29
2024-02-02T05:29:42.209Z,73.47
2024-02-02T05:32:12.198Z,73.70
2024-02-02T05:34:39.940Z,73.72
2024-02-02T05:37:07.634Z,73.82
2024-02-02T05:39:36.441Z,74.11
2024-02-02T05:42:04.200Z,74.20
2024-02-02T05:44:31.840Z,74.19
2024-02-02T05:47:00.619Z,74.23
2024-02-02T05:49:28.237Z,74.44
2024-02-02T05:51:56.020Z,74.63
2024-02-02T05:54:25.177Z,74.70
2024-02-02T05:56:52.893Z,74.78
2024-02-02T05:59:20.980Z,74.88
2024-02-02T06:01:49.767Z,75.49
2024-02-02T06:04:17.453Z,74.95
2024-02-02T06:06:45.071Z,75.17
2024-02-02T06:09:14.097Z,75.19
2024-02-02T06:11:41.457Z,75.27
2024-02-02T06:14:09.605Z,75.56
2024-02-02T06:16:38.396Z,75.59
2024-02-02T06:19:05.974Z,75.45
2024-02-02T06:21:33.538Z,75.51
2024-02-02T06:24:02.845Z,75.51
2024-02-02T06:26:30.382Z,75.51
2024-02-02T06:28:57.932Z,75.62
2024-02-02T06:31:26.728Z,75.84
2024-02-02T06:33:54.360Z,75.72
2024-02-02T06:36:22.171Z,75.75
2024-02-02T06:38:50.834Z,75.68
2024-02-02T06:41:18.613Z,76.02
2024-02-02T06:43:46.155Z,75.74
2024-02-02T06:46:14.980Z,75.82
2024-02-02T06:48:43.048Z,75.90
2024-02-02T06:51:10.783Z,75.88
2024-02-02T06:53:39.661Z,75.83
2024-02-02T06:56:07.372Z,75.98
2024-02-02T06:58:35.079Z,76.00
2024-02-02T07:01:04.069Z,75.69
2024-02-02T07:03:31.847Z,75.56
2024-02-02T07:05:59.633Z,75.20
2024-02-02T07:08:28.717Z,75.41
2024-02-02T07:10:56.667Z,75.09
2024-02-02T07:13:24.242Z,75.12
2024-02-02T07:15:53.226Z,75.06
2024-02-02T07:18:21.107Z,74.75
2024-02-02T07:20:48.863Z,74.73
2024-02-02T07:23:17.738Z,74.62
2024-02-02T07:25:45.312Z,74.33
2024-02-02T07:28:12.858Z,74.41
2024-02-02T07:30:41.681Z,74.36
2024-02-02T07:33:09.251Z,74.19
2024-02-02T07:35:37.086Z,74.17
2024-02-02T07:38:05.990Z,74.17
2024-02-02T07:40:33.636Z,73.98
2024-02-02T07:43:01.426Z,74.05
2024-02-02T07:45:30.400Z,73.85
2024-02-02T07:47:58.051Z,73.97
2024-02-02T07:50:26.076Z,73.89
2024-02-02T07:52:56.331Z,73.50
2024-02-02T07:55:24.020Z,73.39
2024-02-02T07:57:52.996Z,73.24
2024-02-02T08:00:20.669Z,72.93
2024-02-02T08:02:48.310Z,73.04
2024-02-02T08:05:17.195Z,72.92
2024-02-02T08:07:44.761Z,72.10
2024-02-02T08:10:12.419Z,71.78
2024-02-02T08:12:41.639Z,71.32
2024-02-02T08:15:09.440Z,71.03
2024-02-02T08:17:37.071Z,70.41
2024-02-02T08:20:05.894Z,70.65
2024-02-02T08:22:33.482Z,70.59
2024-02-02T08:25:01.048Z,70.74
2024-02-02T08:27:29.830Z,70.10
2024-02-02T08:29:57.523Z,70.17
2024-02-02T08:32:25.277Z,70.39
2024-02-02T08:34:54.561Z,70.08
2024-02-02T08:37:22.117Z,70.00
2024-02-02T08:39:50.090Z,69.46
2024-02-02T08:42:18.950Z,69.54
2024-02-02T08:44:47.048Z,69.19
2024-02-02T08:47:14.607Z,69.04
2024-02-02T08:49:43.548Z,68.95
2024-02-02T08:52:11.461Z,68.06
2024-02-02T08:54:39.139Z,67.39
2024-02-02T08:57:08.034Z,67.03
2024-02-02T08:59:35.675Z,66.41
2024-02-02T09:02:03.241Z,66.25
2024-02-02T09:04:32.220Z,66.14
2024-02-02T09:06:59.978Z,66.36
2024-02-02T09:09:27.761Z,66.58
2024-02-02T09:11:56.586Z,66.46
2024-02-02T09:16:52.390Z,66.10
2024-02-02T09:19:21.238Z,66.11
2024-02-02T09:21:49.030Z,66.31
2024-02-02T09:24:16.701Z,66.10
2024-02-02T09:26:45.682Z,65.45
2024-02-02T09:29:13.126Z,65.55
2024-02-02T09:31:40.496Z,64.91
2024-02-02T09:34:09.558Z,65.03
2024-02-02T09:36:37.530Z,64.85
2024-02-02T09:39:05.248Z,64.33
2024-02-02T09:41:34.109Z,64.29
2024-02-02T09:44:01.686Z,63.99
2024-02-02T09:46:29.537Z,63.65
2024-02-02T09:48:58.548Z,62.87
2024-02-02T09:51:26.447Z,63.50
2024-02-02T09:53:54.341Z,63.80
2024-02-02T09:56:23.203Z,63.70
2024-02-02T09:58:50.827Z,63.26
2024-02-02T10:01:18.716Z,63.27
2024-02-02T10:03:47.685Z,62.74
2024-02-02T10:06:15.414Z,62.58
2024-02-02T10:08:43.300Z,62.86
2024-02-02T10:11:12.090Z,62.72
2024-02-02T10:13:39.758Z,62.93
2024-02-02T10:16:07.315Z,62.61
2024-02-02T10:18:36.318Z,62.81
2024-02-02T10:21:05.736Z,62.30
2024-02-02T10:23:34.913Z,61.75
2024-02-02T10:26:02.497Z,61.12
2024-02-02T10:28:30.340Z,61.57
2024-02-02T10:30:59.325Z,61.24
2024-02-02T10:33:27.228Z,61.30
2024-02-02T10:35:54.979Z,61.58
2024-02-02T10:38:23.949Z,61.65
2024-02-02T10:40:51.604Z,61.61
2024-02-02T10:43:19.269Z,61.54
2024-02-02T10:45:48.121Z,62.25
2024-02-02T10:48:16.769Z,61.32
2024-02-02T10:50:46.960Z,60.33
2024-02-02T10:53:14.511Z,61.06
2024-02-02T10:55:42.184Z,60.10
2024-02-02T10:58:10.978Z,60.96
2024-02-02T11:00:38.722Z,60.65
2024-02-02T11:03:06.482Z,60.16
2024-02-02T11:05:35.409Z,60.59
2024-02-02T11:08:03.163Z,60.35
2024-02-02T11:10:30.820Z,60.42
2024-02-02T11:12:59.509Z,60.66
2024-02-02T11:15:27.059Z,61.41
2024-02-02T11:17:55.015Z,59.95
2024-02-02T11:20:24.118Z,60.12
2024-02-02T11:22:51.978Z,58.38
2024-02-02T11:25:19.672Z,57.84
2024-02-02T11:27:48.446Z,58.47
2024-02-02T11:30:15.888Z,58.43
2024-02-02T11:32:43.503Z,58.67
2024-02-02T11:35:12.293Z,59.14
2024-02-02T11:37:39.786Z,57.53
2024-02-02T11:40:07.265Z,58.25
2024-02-02T11:42:36.538Z,58.44
2024-02-02T11:45:04.220Z,57.52
2024-02-02T11:47:34.016Z,58.36
2024-02-02T11:50:01.692Z,57.91
2024-02-02T11:52:29.452Z,57.32
2024-02-02T11:54:58.235Z,57.48
2024-02-02T11:57:26.322Z,58.56
2024-02-02T11:59:54.788Z,56.86
2024-02-02T12:02:24.293Z,56.93
2024-02-02T12:04:51.927Z,57.31
2024-02-02T12:07:19.892Z,56.70
2024-02-02T12:09:48.920Z,56.85
2024-02-02T12:12:16.533Z,56.70
2024-02-02T12:14:44.453Z,56.74
2024-02-02T12:17:13.356Z,56.73
2024-02-02T12:19:41.013Z,56.56
2024-02-02T12:22:08.858Z,56.72
2024-02-02T12:24:38.124Z,56.46
2024-02-02T12:27:05.830Z,56.39
2024-02-02T12:29:33.479Z,56.32
2024-02-02T12:32:02.192Z,55.18
2024-02-02T12:34:29.738Z,54.83
2024-02-02T12:36:57.424Z,54.19
2024-02-02T12:39:26.362Z,53.88
2024-02-02T12:41:54.041Z,53.60
2024-02-02T12:44:22.014Z,53.79
2024-02-02T12:46:50.804Z,53.74
2024-02-02T12:49:18.614Z,53.98
2024-02-02T12:51:46.165Z,54.18
2024-02-02T12:54:15.049Z,53.88
2024-02-02T12:56:42.573Z,54.27
2024-02-02T12:59:10.092Z,54.66
2024-02-02T13:01:38.858Z,54.65
2024-02-02T13:04:06.616Z,54.77
2024-02-02T13:06:34.172Z,54.31
2024-02-02T13:09:03.547Z,55.34
2024-02-02T13:11:31.203Z,55.72
2024-02-02T13:13:58.859Z,55.38
2024-02-02T13:16:27.650Z,55.75
2024-02-02T13:18:55.483Z,56.49
2024-02-02T13:21:26.641Z,56.86
2024-02-02T13:23:55.582Z,57.14
2024-02-02T13:26:23.014Z,57.21
2024-02-02T13:28:50.650Z,57.91
2024-02-02T13:31:19.583Z,58.29
2024-02-02T13:33:48.014Z,57.96
2024-02-02T13:36:18.401Z,58.67
2024-02-02T13:38:46.046Z,58.99
2024-02-02T13:41:13.493Z,59.37
2024-02-02T13:43:42.175Z,59.44
2024-02-02T13:46:09.730Z,59.71
2024-02-02T13:48:37.386Z,59.76
2024-02-02T13:51:06.308Z,59.02
2024-02-02T13:53:34.449Z,58.40
2024-02-02T13:56:02.184Z,58.03
2024-02-02T13:58:31.113Z,58.00
2024-02-02T14:00:58.715Z,58.36
2024-02-02T14:03:26.402Z,58.99
2024-02-02T14:05:55.434Z,59.07
2024-02-02T14:08:22.890Z,58.55
2024-02-02T14:10:50.361Z,58.66
2024-02-02T14:13:19.226Z,59.02
2024-02-02T14:15:47.181Z,58.90
2024-02-02T14:18:14.831Z,59.53
2024-02-02T14:20:43.736Z,60.14
2024-02-02T14:23:11.411Z,60.48
2024-02-02T14:25:38.956Z,60.71
2024-02-02T14:28:07.753Z,60.62
2024-02-02T14:30:35.356Z,60.92
2024-02-02T14:33:13.901Z,60.69
2024-02-02T14:35:51.033Z,60.79
2024-02-02T14:38:18.685Z,61.04
2024-02-02T14:40:46.219Z,61.09
2024-02-02T14:43:15.121Z,61.21
2024-02-02T14:45:42.690Z,61.22
2024-02-02T14:48:10.527Z,62.64
2024-02-02T14:50:39.530Z,62.49
2024-02-02T14:53:07.509Z,61.71
2024-02-02T14:55:35.157Z,61.48
2024-02-02T14:58:03.945Z,61.70
2024-02-02T15:00:31.763Z,64.49
2024-02-02T15:02:59.700Z,64.02
2024-02-02T15:05:28.704Z,63.16
2024-02-02T15:07:56.443Z,63.41
2024-02-02T15:10:24.001Z,62.64
2024-02-02T15:12:52.700Z,61.89
2024-02-02T15:15:20.546Z,61.90
2024-02-02T15:17:48.255Z,61.98
2024-02-02T15:20:17.193Z,62.37
2024-02-02T15:22:44.769Z,62.55
2024-02-02T15:25:12.437Z,62.79
2024-02-02T15:27:41.331Z,62.92
2024-02-02T15:30:08.834Z,62.98
2024-02-02T15:32:36.429Z,63.34
2024-02-02T15:35:05.422Z,63.48
2024-02-02T15:37:33.602Z,63.72
2024-02-02T15:40:03.864Z,63.75
2024-02-02T15:42:34.227Z,63.97
2024-02-02T15:45:04.494Z,64.14
2024-02-02T15:47:31.986Z,64.26
2024-02-02T15:49:59.768Z,64.31
2024-02-02T15:52:28.785Z,64.50
2024-02-02T15:54:56.748Z,64.43
2024-02-02T15:57:24.417Z,64.64
2024-02-02T15:59:53.500Z,64.41
2024-02-02T16:02:21.067Z,64.44
2024-02-02T16:04:48.656Z,64.43
2024-02-02T16:07:17.655Z,64.60
2024-02-02T16:09:45.432Z,64.62
2024-02-02T16:12:13.134Z,64.51
2024-02-02T16:14:42.235Z,64.47
2024-02-02T16:17:10.086Z,64.41
2024-02-02T16:19:37.767Z,64.37
2024-02-02T16:22:06.754Z,64.56
2024-02-02T16:24:34.515Z,64.38
2024-02-02T16:27:02.320Z,64.55
2024-02-02T16:29:31.190Z,64.38
2024-02-02T16:31:58.855Z,64.28
2024-02-02T16:34:26.506Z,64.32
2024-02-02T16:36:55.519Z,64.39
2024-02-02T16:39:23.083Z,64.29
2024-02-02T16:41:50.491Z,64.14
2024-02-02T16:44:19.212Z,64.47
2024-02-02T16:46:46.676Z,64.30
2024-02-02T16:49:14.266Z,64.24
2024-02-02T16:51:43.218Z,64.35
2024-02-02T16:54:11.480Z,64.45
2024-02-02T16:56:39.141Z,64.56
2024-02-02T16:59:08.033Z,64.47
2024-02-02T17:01:35.626Z,64.42
2024-02-02T17:04:03.498Z,64.37
2024-02-02T17:06:32.533Z,64.57
2024-02-02T17:09:00.303Z,64.42
2024-02-02T17:11:28.076Z,64.35
2024-02-02T17:13:56.876Z,64.39
2024-02-02T17:16:24.417Z,64.18
2024-02-02T17:18:52.062Z,64.31
2024-02-02T17:21:21.318Z,64.22
2024-02-02T17:23:48.945Z,64.03
2024-02-02T17:26:16.409Z,64.08
2024-02-02T17:28:45.298Z,64.08
2024-02-02T17:31:12.862Z,64.17
2024-02-02T17:33:40.648Z,63.91
2024-02-02T17:36:09.947Z,64.04
2024-02-02T17:38:37.672Z,64.59
2024-02-02T17:41:05.227Z,64.77
2024-02-02T17:43:34.124Z,64.75
2024-02-02T17:46:01.676Z,64.99
2024-02-02T17:48:29.441Z,65.00
2024-02-02T17:50:58.467Z,64.93
2024-02-02T17:53:25.894Z,65.35
2024-02-02T17:55:53.555Z,65.15
2024-02-02T17:58:22.435Z,65.27
2024-02-02T18:00:50.051Z,65.42
2024-02-02T18:03:18.126Z,65.62
2024-02-02T18:05:46.877Z,65.64
2024-02-02T18:08:14.452Z,65.74
2024-02-02T18:10:42.103Z,65.88
2024-02-02T18:13:10.972Z,66.11
2024-02-02T18:15:38.708Z,66.11
2024-02-02T18:18:06.469Z,66.09
2024-02-02T18:20:35.319Z,66.32
2024-02-02T18:23:02.936Z,66.39
2024-02-02T18:25:30.920Z,66.69
2024-02-02T18:27:59.694Z,66.74
2024-02-02T18:30:27.325Z,67.12
2024-02-02T18:32:55.059Z,67.26
2024-02-02T18:35:24.079Z,67.15
2024-02-02T18:37:51.682Z,67.44
2024-02-02T18:40:19.246Z,67.62
2024-02-02T18:42:48.248Z,67.88
2024-02-02T18:45:16.445Z,67.98
2024-02-02T18:47:43.987Z,67.88
2024-02-02T18:50:13.074Z,67.98
2024-02-02T18:52:40.615Z,67.92
2024-02-02T18:55:08.379Z,67.95
2024-02-02T18:57:37.370Z,68.15
2024-02-02T19:00:04.998Z,68.23
2024-02-02T19:02:32.713Z,68.20
2024-02-02T19:05:02.068Z,68.38
2024-02-02T19:07:29.984Z,68.39
2024-02-02T19:09:59.976Z,68.45
2024-02-02T19:12:27.747Z,68.43
2024-02-02T19:14:55.410Z,68.66
2024-02-02T19:17:24.212Z,68.82
2024-02-02T19:19:52.005Z,68.71
2024-02-02T19:22:19.836Z,68.85
2024-02-02T19:24:48.691Z,68.98
2024-02-02T19:27:16.708Z,68.98
2024-02-02T19:29:44.340Z,69.08
2024-02-02T19:32:13.192Z,69.01
2024-02-02T19:34:40.830Z,68.97
2024-02-02T19:37:08.560Z,68.99
2024-02-02T19:39:37.514Z,68.92
2024-02-02T19:42:05.352Z,68.88
2024-02-02T19:44:32.868Z,69.00
2024-02-02T19:47:02.126Z,69.13
2024-02-02T19:49:29.807Z,69.06
2024-02-02T19:51:57.677Z,69.04
2024-02-02T19:54:26.712Z,69.34
2024-02-02T19:56:54.159Z,69.29
2024-02-02T19:59:21.754Z,69.40
2024-02-02T20:01:50.459Z,69.48
2024-02-02T20:04:18.160Z,69.62
2024-02-02T20:06:46.110Z,69.73
2024-02-02T20:09:15.454Z,69.77
2024-02-02T20:11:42.872Z,69.88
2024-02-02T20:14:10.440Z,69.88
2024-02-02T20:16:39.331Z,69.78
2024-02-02T20:19:07.087Z,69.83
2024-02-02T20:21:34.869Z,69.58
2024-02-02T20:24:03.773Z,69.65
2024-02-02T20:26:31.409Z,69.73
2024-02-02T20:28:59.072Z,69.60
2024-02-02T20:31:27.956Z,69.65
2024-02-02T20:33:56.066Z,69.61
2024-02-02T20:36:24.150Z,69.74
2024-02-02T20:38:53.198Z,69.45
2024-02-02T20:41:20.755Z,69.30
2024-02-02T20:43:48.413Z,69.15
2024-02-02T20:46:17.307Z,69.19
2024-02-02T20:48:44.941Z,68.89
2024-02-02T20:51:15.037Z,68.70
2024-02-02T20:53:46.339Z,68.75
2024-02-02T20:56:13.903Z,68.61
2024-02-02T20:58:41.452Z,68.54
2024-02-02T21:01:10.316Z,68.65
2024-02-02T21:03:37.852Z,68.39
2024-02-02T21:06:05.810Z,68.44
2024-02-02T21:08:34.751Z,68.30
2024-02-02T21:11:02.236Z,68.33
2024-02-02T21:13:29.869Z,68.42
2024-02-02T21:15:59.103Z,68.31
2024-02-02T21:18:26.825Z,68.47
2024-02-02T21:20:54.593Z,68.44
2024-02-02T21:23:23.332Z,68.41
2024-02-02T21:25:50.940Z,68.55
2024-02-02T21:28:18.446Z,68.43
2024-02-02T21:30:47.710Z,68.42
2024-02-02T21:33:18.702Z,68.30
2024-02-02T21:35:50.493Z,68.52
2024-02-02T21:38:18.366Z,68.32
2024-02-02T21:40:46.020Z,68.47
2024-02-02T21:43:14.807Z,68.59
2024-02-02T21:45:42.440Z,68.55
2024-02-02T21:48:10.378Z,68.56
2024-02-02T21:50:39.332Z,68.63
2024-02-02T21:53:06.741Z,68.58
2024-02-02T21:55:34.344Z,68.57
2024-02-02T21:58:03.540Z,68.49
2024-02-02T22:00:31.358Z,68.17
2024-02-02T22:02:59.169Z,68.01
2024-02-02T22:05:27.974Z,67.78
2024-02-02T22:07:55.516Z,67.53
2024-02-02T22:10:23.085Z,67.28
2024-02-02T22:12:51.980Z,67.25
2024-02-02T22:15:19.543Z,67.21
2024-02-02T22:17:47.218Z,67.04
2024-02-02T22:20:16.484Z,67.01
2024-02-02T22:22:43.958Z,67.06
2024-02-02T22:25:11.498Z,67.10
2024-02-02T22:27:40.365Z,66.95
2024-02-02T22:30:08.076Z,66.93
2024-02-02T22:32:36.611Z,67.13
2024-02-02T22:35:05.644Z,67.23
2024-02-02T22:37:33.298Z,67.06
2024-02-02T22:40:01.179Z,67.20
2024-02-02T22:42:30.062Z,67.10
2024-02-02T22:44:57.603Z,67.40
2024-02-02T22:47:25.263Z,67.33
2024-02-02T22:49:54.074Z,67.33
2024-02-02T22:52:21.614Z,67.28
2024-02-02T22:54:49.343Z,67.25
2024-02-02T22:57:18.215Z,67.36
2024-02-02T22:59:53.190Z,67.19
2024-02-02T23:02:27.470Z,67.10
2024-02-02T23:04:55.290Z,67.18
2024-02-02T23:07:22.920Z,67.14
2024-02-02T23:09:51.972Z,67.30
2024-02-02T23:12:19.535Z,67.42
2024-02-02T23:14:47.026Z,67.51
2024-02-02T23:17:15.839Z,67.76
2024-02-02T23:19:45.166Z,67.77
2024-02-02T23:22:14.337Z,67.69
2024-02-02T23:24:42.082Z,67.75
2024-02-02T23:27:09.799Z,67.67
2024-02-02T23:29:38.655Z,67.63
2024-02-02T23:32:06.235Z,67.89
2024-02-02T23:34:34.032Z,67.79
2024-02-02T23:37:02.871Z,67.89
2024-02-02T23:39:30.800Z,67.80
2024-02-02T23:41:58.593Z,67.81
2024-02-02T23:44:27.389Z,68.03
2024-02-02T23:46:55.049Z,68.01
2024-02-02T23:49:22.719Z,68.02
2024-02-02T23:51:51.426Z,68.13
2024-02-02T23:54:19.194Z,68.12
2024-02-02T23:56:46.921Z,67.93
2024-02-02T23:59:15.697Z,68.28
